createdAt,value
2022-08-28T00:02:56.487Z,4.50
2022-08-28T00:05:59.721Z,4.57
2022-08-28T00:09:01.768Z,3.92
2022-08-28T00:12:04.980Z,4.05
2022-08-28T00:15:11.913Z,3.85
2022-08-28T00:18:15.022Z,4.25
2022-08-28T00:21:17.094Z,4.40
2022-08-28T00:24:19.106Z,4.55
2022-08-28T00:27:21.122Z,4.65
2022-08-28T00:30:33.644Z,4.72
2022-08-28T00:33:35.672Z,4.40
2022-08-28T00:36:38.673Z,4.43
2022-08-28T00:39:40.698Z,3.55
2022-08-28T00:42:42.944Z,3.55
2022-08-28T00:45:45.012Z,3.80
2022-08-28T00:48:47.255Z,4.28
2022-08-28T00:51:51.268Z,3.88
2022-08-28T00:55:03.565Z,4.03
2022-08-28T00:58:05.638Z,4.35
2022-08-28T01:01:09.004Z,4.20
2022-08-28T01:04:16.819Z,3.43
2022-08-28T01:07:19.331Z,4.25
2022-08-28T01:10:23.928Z,4.28
2022-08-28T01:13:27.615Z,4.28
2022-08-28T01:16:33.712Z,4.68
2022-08-28T01:19:40.772Z,4.28
2022-08-28T01:22:51.552Z,4.13
2022-08-28T01:25:54.120Z,4.00
2022-08-28T01:28:58.338Z,4.00
2022-08-28T01:32:00.387Z,3.72
2022-08-28T01:35:03.776Z,4.18
2022-08-28T01:38:05.870Z,3.95
2022-08-28T01:41:08.166Z,4.15
2022-08-28T01:44:10.203Z,4.30
2022-08-28T01:47:12.240Z,4.28
2022-08-28T01:50:17.660Z,4.65
2022-08-28T01:53:24.889Z,4.60
2022-08-28T01:56:27.167Z,5.15
2022-08-28T01:59:29.179Z,4.97
2022-08-28T02:02:31.184Z,5.30
2022-08-28T02:05:33.637Z,5.43
2022-08-28T02:08:36.499Z,5.40
2022-08-28T02:11:38.952Z,5.20
2022-08-28T02:14:44.675Z,5.47
2022-08-28T02:17:46.759Z,5.13
2022-08-28T02:20:48.760Z,5.00
2022-08-28T02:23:50.916Z,5.03
2022-08-28T02:26:52.933Z,5.45
2022-08-28T02:29:54.999Z,6.10
2022-08-28T02:32:57.037Z,5.53
2022-08-28T02:35:59.044Z,5.03
2022-08-28T02:39:01.073Z,5.57
2022-08-28T02:42:03.538Z,5.65
2022-08-28T02:45:06.645Z,5.53
2022-08-28T02:48:15.600Z,5.07
2022-08-28T02:51:19.501Z,4.97
2022-08-28T02:54:21.500Z,6.07
2022-08-28T02:57:23.525Z,5.93
2022-08-28T03:00:26.416Z,5.63
2022-08-28T03:03:29.744Z,5.20
2022-08-28T03:06:32.598Z,5.70
2022-08-28T03:09:34.762Z,5.57
2022-08-28T03:12:37.719Z,5.00
2022-08-28T03:15:39.719Z,5.80
2022-08-28T03:18:42.087Z,5.25
2022-08-28T03:21:44.121Z,5.63
2022-08-28T03:24:46.112Z,7.13
2022-08-28T03:27:48.632Z,8.30
2022-08-28T03:30:50.733Z,6.30
2022-08-28T03:33:53.773Z,8.13
2022-08-28T03:36:55.798Z,7.78
2022-08-28T03:39:57.895Z,7.97
2022-08-28T03:42:59.896Z,8.60
2022-08-28T03:46:04.203Z,8.82
2022-08-28T03:49:06.257Z,8.50
2022-08-28T03:52:08.445Z,9.18
2022-08-28T03:55:12.342Z,7.38
2022-08-28T03:58:18.927Z,7.97
2022-08-28T04:01:22.002Z,7.45
2022-08-28T04:04:24.046Z,8.13
2022-08-28T04:07:26.129Z,7.65
2022-08-28T04:10:28.882Z,7.25
2022-08-28T04:13:31.357Z,7.68
2022-08-28T04:16:33.425Z,7.80
2022-08-28T04:19:35.607Z,7.15
2022-08-28T04:22:37.704Z,6.90
2022-08-28T04:25:40.604Z,7.00
2022-08-28T04:28:43.042Z,7.95
2022-08-28T04:31:45.100Z,7.22
2022-08-28T04:34:47.181Z,7.78
2022-08-28T04:37:49.194Z,7.32
2022-08-28T04:40:51.205Z,7.63
2022-08-28T04:43:53.340Z,7.32
2022-08-28T04:46:55.376Z,7.55
2022-08-28T04:49:59.929Z,7.47
2022-08-28T04:53:01.940Z,7.30
2022-08-28T04:56:09.671Z,6.90
2022-08-28T04:59:12.163Z,6.25
2022-08-28T05:02:14.237Z,6.63
2022-08-28T05:05:16.388Z,5.85
2022-08-28T05:08:22.072Z,5.95
2022-08-28T05:11:34.022Z,5.78
2022-08-28T05:14:36.748Z,6.05
2022-08-28T05:17:38.769Z,5.43
2022-08-28T05:20:43.941Z,4.95
2022-08-28T05:23:47.815Z,5.53
2022-08-28T05:26:49.978Z,4.82
2022-08-28T05:29:52.377Z,5.28
2022-08-28T05:32:54.408Z,4.85
2022-08-28T05:35:57.550Z,4.77
2022-08-28T05:39:00.396Z,4.38
2022-08-28T05:42:02.478Z,4.68
2022-08-28T05:45:07.994Z,4.55
2022-08-28T05:48:10.131Z,4.05
2022-08-28T05:51:16.555Z,3.83
2022-08-28T05:54:18.554Z,4.45
2022-08-28T05:57:20.585Z,3.40
2022-08-28T06:00:22.604Z,3.40
2022-08-28T06:03:24.626Z,3.55
2022-08-28T06:06:28.999Z,3.58
2022-08-28T06:09:31.667Z,3.63
2022-08-28T06:12:33.677Z,3.70
2022-08-28T06:15:41.991Z,3.80
2022-08-28T06:18:43.982Z,3.80
2022-08-28T06:21:46.037Z,3.53
2022-08-28T06:24:48.037Z,3.75
2022-08-28T06:27:51.082Z,3.20
2022-08-28T06:31:22.989Z,3.45
2022-08-28T06:34:17.166Z,3.05
2022-08-28T06:37:19.165Z,3.08
2022-08-28T06:40:21.231Z,3.50
2022-08-28T06:43:26.804Z,2.97
2022-08-28T06:46:28.880Z,3.10
2022-08-28T06:49:30.873Z,3.10
2022-08-28T06:52:32.882Z,2.67
2022-08-28T06:55:35.340Z,3.03
2022-08-28T06:58:40.506Z,3.10
2022-08-28T07:01:42.660Z,3.33
2022-08-28T07:04:44.699Z,2.90
2022-08-28T07:07:46.732Z,2.75
2022-08-28T07:10:48.728Z,2.33
2022-08-28T07:13:51.707Z,2.75
2022-08-28T07:16:53.686Z,2.20
2022-08-28T07:19:55.742Z,2.13
2022-08-28T07:22:59.722Z,2.20
2022-08-28T07:26:07.577Z,2.38
2022-08-28T07:29:11.427Z,2.50
2022-08-28T07:32:13.769Z,2.17
2022-08-28T07:35:17.019Z,2.17
2022-08-28T07:38:19.966Z,2.00
2022-08-28T07:41:24.942Z,2.45
2022-08-28T07:44:27.049Z,2.15
2022-08-28T07:47:30.521Z,2.30
2022-08-28T07:50:32.544Z,2.55
2022-08-28T07:53:36.592Z,2.08
2022-08-28T07:56:38.841Z,2.47
2022-08-28T07:59:42.820Z,1.85
2022-08-28T08:02:44.901Z,1.80
2022-08-28T08:05:55.447Z,1.90
2022-08-28T08:08:57.713Z,2.08
2022-08-28T08:11:59.971Z,2.03
2022-08-28T08:15:02.242Z,1.90
2022-08-28T08:18:04.333Z,2.47
2022-08-28T08:21:12.629Z,2.22
2022-08-28T08:24:20.050Z,1.85
2022-08-28T08:27:22.160Z,1.88
2022-08-28T08:30:24.177Z,1.85
2022-08-28T08:33:26.201Z,1.92
2022-08-28T08:36:29.187Z,2.08
2022-08-28T08:39:32.382Z,1.65
2022-08-28T08:42:34.816Z,2.03
2022-08-28T08:45:38.827Z,1.67
2022-08-28T08:48:44.296Z,1.58
2022-08-28T08:52:15.201Z,1.38
2022-08-28T08:55:35.526Z,1.30
2022-08-28T08:58:43.304Z,1.73
2022-08-28T09:02:20.691Z,1.95
2022-08-28T09:05:46.922Z,1.73
2022-08-28T09:08:56.889Z,1.75
2022-08-28T09:12:05.731Z,1.42
2022-08-28T09:15:17.161Z,1.80
2022-08-28T09:18:26.253Z,1.60
2022-08-28T09:21:38.555Z,1.77
2022-08-28T09:24:40.919Z,2.22
2022-08-28T09:27:46.451Z,1.80
2022-08-28T09:30:57.886Z,1.60
2022-08-28T09:34:24.749Z,2.05
2022-08-28T09:37:28.349Z,1.48
2022-08-28T09:40:32.282Z,1.60
2022-08-28T09:43:36.246Z,1.95
2022-08-28T09:46:38.396Z,1.52
2022-08-28T09:49:40.424Z,1.60
2022-08-28T09:52:42.493Z,1.42
2022-08-28T09:56:05.339Z,1.45
2022-08-28T09:59:17.021Z,1.55
2022-08-28T10:02:36.416Z,1.70
2022-08-28T10:05:47.322Z,1.45
2022-08-28T10:09:13.974Z,1.55
2022-08-28T10:12:49.450Z,1.50
2022-08-28T10:16:03.529Z,1.35
2022-08-28T10:19:27.547Z,1.48
2022-08-28T10:22:36.222Z,1.67
2022-08-28T10:25:49.849Z,1.52
2022-08-28T10:29:14.845Z,1.40
2022-08-28T10:32:50.851Z,1.75
2022-08-28T10:36:00.150Z,1.52
2022-08-28T10:39:43.734Z,1.33
2022-08-28T10:42:53.994Z,1.38
2022-08-28T10:46:09.729Z,1.70
2022-08-28T10:49:34.334Z,1.45
2022-08-28T10:52:41.725Z,1.30
2022-08-28T10:56:08.451Z,1.40
2022-08-28T10:59:10.500Z,1.70
2022-08-28T11:02:13.792Z,1.40
2022-08-28T11:05:24.262Z,1.48
2022-08-28T11:08:32.583Z,1.67
2022-08-28T11:11:47.859Z,1.70
2022-08-28T11:14:50.737Z,1.20
2022-08-28T11:17:55.674Z,1.30
2022-08-28T11:21:33.050Z,1.38
2022-08-28T11:24:35.039Z,1.42
2022-08-28T11:27:38.759Z,1.30
2022-08-28T11:30:42.321Z,1.42
2022-08-28T11:36:46.046Z,1.40
2022-08-28T11:39:48.091Z,1.20
2022-08-28T11:42:50.135Z,1.48
2022-08-28T11:45:55.095Z,1.30
2022-08-28T11:49:00.020Z,1.83
2022-08-28T11:52:16.897Z,1.52
2022-08-28T11:55:27.374Z,1.50
2022-08-28T11:58:56.688Z,1.58
2022-08-28T12:02:34.054Z,1.23
2022-08-28T12:05:41.033Z,1.60
2022-08-28T12:08:49.158Z,1.30
2022-08-28T12:11:56.760Z,1.30
2022-08-28T12:15:01.437Z,1.45
2022-08-28T12:18:13.602Z,1.27
2022-08-28T12:21:24.532Z,1.40
2022-08-28T12:24:27.265Z,1.40
2022-08-28T12:27:35.992Z,1.40
2022-08-28T12:30:53.578Z,1.30
2022-08-28T12:34:08.140Z,1.40
2022-08-28T12:37:52.347Z,1.35
2022-08-28T12:40:54.916Z,1.30
2022-08-28T12:43:59.678Z,1.25
2022-08-28T12:47:01.744Z,1.55
2022-08-28T12:50:23.856Z,1.33
2022-08-28T12:53:25.935Z,1.40
2022-08-28T12:56:33.147Z,1.27
2022-08-28T12:59:38.491Z,1.40
2022-08-28T13:02:41.286Z,1.40
2022-08-28T13:05:43.408Z,1.50
2022-08-28T13:08:48.693Z,1.35
2022-08-28T13:11:51.380Z,1.25
2022-08-28T13:14:53.383Z,1.38
2022-08-28T13:17:55.431Z,1.35
2022-08-28T13:21:13.121Z,1.30
2022-08-28T13:24:20.806Z,1.20
2022-08-28T13:27:24.042Z,1.20
2022-08-28T13:30:32.285Z,1.30
2022-08-28T13:33:34.334Z,1.52
2022-08-28T13:36:48.846Z,1.20
2022-08-28T13:39:50.858Z,1.55
2022-08-28T13:42:58.144Z,1.20
2022-08-28T13:46:00.295Z,1.30
2022-08-28T13:49:02.324Z,1.48
2022-08-28T13:52:07.379Z,1.33
2022-08-28T13:55:12.468Z,1.30
2022-08-28T13:58:14.491Z,1.30
2022-08-28T14:01:22.476Z,1.48
2022-08-28T14:04:32.633Z,1.40
2022-08-28T14:07:34.657Z,1.20
2022-08-28T14:10:36.672Z,1.38
2022-08-28T14:13:38.732Z,1.50
2022-08-28T14:16:40.858Z,1.30
2022-08-28T14:19:42.901Z,1.17
2022-08-28T14:22:45.044Z,1.35
2022-08-28T14:25:47.381Z,1.55
2022-08-28T14:28:49.429Z,1.45
2022-08-28T14:31:51.498Z,1.42
2022-08-28T14:34:53.614Z,1.40
2022-08-28T14:37:56.308Z,1.60
2022-08-28T14:40:58.332Z,1.20
2022-08-28T14:44:01.183Z,1.50
2022-08-28T14:47:03.200Z,1.40
2022-08-28T14:50:06.215Z,1.55
2022-08-28T14:53:08.930Z,1.75
2022-08-28T14:56:11.188Z,2.53
2022-08-28T14:59:23.770Z,1.90
2022-08-28T15:02:26.320Z,1.73
2022-08-28T15:05:28.333Z,1.30
2022-08-28T15:08:30.828Z,1.48
2022-08-28T15:11:32.886Z,1.40
2022-08-28T15:14:35.827Z,1.33
2022-08-28T15:17:37.845Z,1.65
2022-08-28T15:20:42.462Z,1.38
2022-08-28T15:23:44.724Z,1.70
2022-08-28T15:26:46.983Z,1.48
2022-08-28T15:29:49.000Z,1.63
2022-08-28T15:32:51.021Z,1.52
2022-08-28T15:35:56.593Z,1.50
2022-08-28T15:38:58.621Z,1.42
2022-08-28T15:42:01.268Z,1.30
2022-08-28T15:45:03.483Z,1.38
2022-08-28T15:48:05.577Z,1.27
2022-08-28T15:51:07.590Z,1.30
2022-08-28T15:54:09.603Z,1.30
2022-08-28T15:57:11.632Z,1.45
2022-08-28T16:00:14.256Z,1.50
2022-08-28T16:03:16.264Z,1.50
2022-08-28T16:06:23.225Z,1.63
2022-08-28T16:09:25.273Z,1.45
2022-08-28T16:12:27.289Z,1.38
2022-08-28T16:15:29.300Z,1.48
2022-08-28T16:18:31.333Z,1.40
2022-08-28T16:21:33.488Z,1.45
2022-08-28T16:24:36.012Z,1.20
2022-08-28T16:27:38.016Z,1.73
2022-08-28T16:30:43.956Z,1.35
2022-08-28T16:33:46.467Z,1.33
2022-08-28T16:36:48.502Z,1.40
2022-08-28T16:39:54.281Z,1.20
2022-08-28T16:42:56.648Z,1.38
2022-08-28T16:45:58.679Z,1.50
2022-08-28T16:49:00.717Z,1.60
2022-08-28T16:52:02.982Z,1.40
2022-08-28T16:55:08.050Z,1.50
2022-08-28T16:58:11.969Z,1.60
2022-08-28T17:01:17.109Z,1.50
2022-08-28T17:04:19.223Z,1.33
2022-08-28T17:07:21.752Z,1.45
2022-08-28T17:10:24.214Z,1.38
2022-08-28T17:13:26.213Z,1.52
2022-08-28T17:16:29.212Z,1.58
2022-08-28T17:19:31.176Z,1.50
2022-08-28T17:22:33.627Z,1.30
2022-08-28T17:25:35.763Z,1.40
2022-08-28T17:28:37.801Z,1.48
2022-08-28T17:31:40.177Z,1.60
2022-08-28T17:34:42.279Z,1.33
2022-08-28T17:37:45.301Z,1.40
2022-08-28T17:40:47.803Z,1.67
2022-08-28T17:43:49.846Z,1.60
2022-08-28T17:46:51.927Z,1.35
2022-08-28T17:49:54.027Z,1.60
2022-08-28T17:52:56.065Z,1.77
2022-08-28T17:55:58.274Z,1.50
2022-08-28T17:59:00.289Z,1.60
2022-08-28T18:02:02.343Z,1.70
2022-08-28T18:05:04.933Z,1.92
2022-08-28T18:08:08.172Z,1.88
2022-08-28T18:11:10.854Z,1.80
2022-08-28T18:14:12.922Z,1.63
2022-08-28T18:17:15.143Z,1.67
2022-08-28T18:20:18.070Z,1.58
2022-08-28T18:23:20.356Z,1.88
2022-08-28T18:26:22.402Z,1.65
2022-08-28T18:29:24.469Z,1.88
2022-08-28T18:32:27.420Z,2.22
2022-08-28T18:35:31.662Z,2.10
2022-08-28T18:38:34.280Z,1.70
2022-08-28T18:41:43.772Z,1.75
2022-08-28T18:44:46.400Z,1.85
2022-08-28T18:47:48.410Z,1.90
2022-08-28T18:50:50.461Z,1.90
2022-08-28T18:53:52.506Z,1.88
2022-08-28T18:56:57.358Z,2.53
2022-08-28T19:00:04.824Z,2.10
2022-08-28T19:03:06.954Z,1.80
2022-08-28T19:06:12.520Z,2.00
2022-08-28T19:09:20.440Z,1.90
2022-08-28T19:12:23.803Z,1.77
2022-08-28T19:15:25.812Z,2.88
2022-08-28T19:18:27.853Z,1.95
2022-08-28T19:21:30.245Z,1.70
2022-08-28T19:24:32.796Z,1.70
2022-08-28T19:27:34.981Z,1.65
2022-08-28T19:30:37.029Z,1.80
2022-08-28T19:33:39.131Z,1.80
2022-08-28T19:36:41.157Z,2.00
2022-08-28T19:39:48.525Z,1.83
2022-08-28T19:42:58.702Z,1.90
2022-08-28T19:46:07.936Z,1.73
2022-08-28T19:49:16.117Z,1.80
2022-08-28T19:52:18.149Z,1.60
2022-08-28T19:55:23.481Z,1.73
2022-08-28T19:58:25.869Z,1.90
2022-08-28T20:01:34.257Z,1.50
2022-08-28T20:04:36.324Z,2.05
2022-08-28T20:07:38.343Z,1.73
2022-08-28T20:10:41.515Z,2.00
2022-08-28T20:13:43.521Z,2.27
2022-08-28T20:16:47.913Z,1.92
2022-08-28T20:19:49.909Z,2.00
2022-08-28T20:22:53.935Z,1.95
2022-08-28T20:25:56.272Z,2.13
2022-08-28T20:28:58.284Z,2.05
2022-08-28T20:32:00.699Z,2.67
2022-08-28T20:35:05.916Z,2.15
2022-08-28T20:38:08.016Z,1.90
2022-08-28T20:41:13.535Z,2.42
2022-08-28T20:44:18.240Z,2.17
2022-08-28T20:47:20.253Z,2.15
2022-08-28T20:50:25.490Z,2.20
2022-08-28T20:53:37.340Z,2.38
2022-08-28T20:56:40.310Z,2.53
2022-08-28T20:59:44.213Z,2.67
2022-08-28T21:02:46.225Z,2.10
2022-08-28T21:05:48.994Z,2.20
2022-08-28T21:08:51.139Z,2.47
2022-08-28T21:11:53.171Z,2.60
2022-08-28T21:14:55.230Z,2.60
2022-08-28T21:17:57.834Z,2.70
2022-08-28T21:20:59.849Z,2.60
2022-08-28T21:24:05.022Z,2.60
2022-08-28T21:27:07.025Z,2.80
2022-08-28T21:30:13.947Z,2.40
2022-08-28T21:33:15.943Z,2.38
2022-08-28T21:36:18.840Z,2.55
2022-08-28T21:39:20.959Z,2.25
2022-08-28T21:42:23.019Z,2.65
2022-08-28T21:45:25.021Z,2.17
2022-08-28T21:48:27.502Z,2.30
2022-08-28T21:51:29.557Z,2.60
2022-08-28T21:54:31.756Z,2.47
2022-08-28T21:57:34.631Z,2.65
2022-08-28T22:00:36.640Z,2.35
2022-08-28T22:03:38.686Z,2.78
2022-08-28T22:06:40.782Z,2.50
2022-08-28T22:09:43.338Z,2.40
2022-08-28T22:12:45.380Z,3.08
2022-08-28T22:15:47.544Z,2.70
2022-08-28T22:18:50.148Z,3.22
2022-08-28T22:21:52.142Z,2.80
2022-08-28T22:24:54.163Z,2.78
2022-08-28T22:27:56.163Z,2.88
2022-08-28T22:30:58.346Z,3.33
2022-08-28T22:34:02.549Z,2.60
2022-08-28T22:37:04.606Z,2.83
2022-08-28T22:40:09.416Z,2.58
2022-08-28T22:43:12.644Z,2.67
2022-08-28T22:46:14.973Z,2.92
2022-08-28T22:49:17.072Z,3.10
2022-08-28T22:52:19.111Z,3.08
2022-08-28T22:55:22.117Z,2.70
2022-08-28T22:58:24.199Z,2.90
2022-08-28T23:01:26.593Z,3.55
2022-08-28T23:04:28.739Z,3.38
2022-08-28T23:07:30.811Z,3.30
2022-08-28T23:10:55.588Z,3.47
2022-08-28T23:13:54.804Z,3.40
2022-08-28T23:16:57.063Z,3.22
2022-08-28T23:19:59.158Z,2.78
2022-08-28T23:23:01.335Z,2.90
2022-08-28T23:26:04.025Z,2.85
2022-08-28T23:29:06.035Z,2.70
2022-08-28T23:32:08.114Z,2.75
2022-08-28T23:35:14.413Z,3.10
2022-08-28T23:38:16.467Z,3.13
2022-08-28T23:41:18.729Z,3.35
2022-08-28T23:44:21.229Z,2.78
2022-08-28T23:47:23.275Z,3.35
2022-08-28T23:50:25.560Z,3.35
2022-08-28T23:53:27.618Z,3.50
2022-08-28T23:56:31.171Z,3.40
2022-08-28T23:59:33.176Z,3.40
